ADDS METAR Data INFO
IDs: Format: Raw Decoded Include TAF

Data at: 2215 UTC 24 Jun 2018

KLOL 242153Z AUTO 20005KT 10SM CLR 30/M01 A3002 RMK AO2 SLP123 T03001011
KLOL 242053Z AUTO VRB04KT 10SM CLR 30/M02 A3004 RMK AO2 SLP131 T03001022 58015
KLOL 241953Z AUTO VRB04KT 10SM CLR 28/M01 A3006 RMK AO2 SLP138 T02831011
KLOL 241853Z AUTO 00000KT 10SM CLR 27/M01 A3007 RMK AO2 SLP140 T02671011
KLOL 241753Z AUTO 33005KT 10SM CLR 26/00 A3009 RMK AO2 SLP146 T02610000 10261 20111 58003
KLOL 241653Z AUTO 05005KT 10SM CLR 24/01 A3009 RMK AO2 SLP147 T02440006
KLOL 241553Z AUTO 03011KT 10SM CLR 22/02 A3010 RMK AO2 SLP151 T02220022
KLOL 241453Z AUTO 05011KT 10SM CLR 19/02 A3010 RMK AO2 SLP151 T01940022 51007
KLOL 241353Z AUTO 01006KT 10SM CLR 18/01 A3010 RMK AO2 SLP151 T01780011
KLOL 241253Z AUTO 00000KT 10SM CLR 13/00 A3009 RMK AO2 SLP153 T01280000
KLOL 241153Z AUTO 03006KT 10SM CLR 14/M01 A3008 RMK AO2 SLP144 T01441006 10233 20139 51009
KLOL 241053Z AUTO 03004KT 10SM CLR 16/M01 A3007 RMK AO2 SLP141 T01611011
KLOL 240953Z AUTO 00000KT 10SM CLR 17/M02 A3006 RMK AO2 SLP137 T01721017
KLOL 240853Z AUTO 00000KT 10SM CLR 18/M02 A3004 RMK AO2 SLP134 T01781017 51014
KLOL 240753Z AUTO 07008KT 10SM CLR 19/M02 A3003 RMK AO2 SLP127 T01891017 403280122
KLOL 240653Z AUTO 03013KT 10SM CLR 23/M02 A3002 RMK AO2 SLP120 T02281022
KLOL 240553Z AUTO 02013KT 10SM CLR 23/M03 A3000 RMK AO2 SLP114 T02331028 10328 20233 53019
KLOL 240453Z AUTO 02014KT 10SM CLR 25/M05 A2998 RMK AO2 SLP108 T02501050
KLOL 240353Z AUTO 02008KT 10SM CLR 27/M05 A2995 RMK AO2 SLP097 T02671050
KLOL 240253Z AUTO 36014G20KT 10SM CLR 29/M06 A2993 RMK AO2 SLP092 T02941056 55000
KLOL 240153Z AUTO 36014KT 10SM CLR 31/M06 A2993 RMK AO2 SLP091 T03111061
KLOL 240053Z AUTO 10SM CLR 32/M07 A2992 RMK AO2 SLP094 T03221072
KLOL 232353Z AUTO 01008KT 10SM CLR 33/M07 A2993 RMK AO2 SLP093 T03281072 10328 20267 56009
KLOL 232253Z AUTO 33004KT 10SM CLR 32/M05 A2994 RMK AO2 SLP095 T03171050
KLOL 232153Z AUTO 10SM CLR 31/M03 A2995 RMK AO2 SLP100 T03111028
KLOL 232053Z AUTO 15007KT 10SM CLR 30/01 A2997 RMK AO2 SLP106 T03000006 56014
KLOL 231953Z AUTO 10SM CLR 29/00 A2998 RMK AO2 SLP108 T02940000
KLOL 231853Z AUTO 11007KT 10SM CLR 28/01 A3000 RMK AO2 SLP113 T02830006
KLOL 231753Z AUTO 08007KT 10SM CLR 27/02 A3001 RMK AO2 SLP119 T02720017 10272 20122 58006
KLOL 231653Z AUTO 04011KT 10SM CLR 26/02 A3002 RMK AO2 SLP123 T02560017
KLOL 231553Z AUTO 04009KT 10SM CLR 23/02 A3004 RMK AO2 SLP128 T02330017
KLOL 231453Z AUTO 03009KT 10SM CLR 22/01 A3003 RMK AO2 SLP123 T02170011 51011
KLOL 231353Z AUTO 06008KT 10SM CLR 19/01 A3003 RMK AO2 SLP122 T01890011
KLOL 231253Z AUTO 08008KT 10SM CLR 13/M01 A3001 RMK AO2 SLP124 T01281006
KLOL 231153Z AUTO 05005KT 10SM CLR 17/M01 A3000 RMK AO2 SLP116 T01671006 10239 20128 53008
KLOL 231053Z AUTO 02006KT 10SM CLR 18/M02 A2998 RMK AO2 SLP107 T01831017